Time;durP1;ratioP1;P1;durP2;ratioP2;P2;SDS_P1;SDS_P2;PMS_P1;PMS_P2;Temp;Humidity;BMP_temperature;BMP_pressure;BME280_temperature;BME280_humidity;BME280_pressure;Samples;Min_cycle;Max_cycle;Signal;HPM_P1;HPM_P2
2022/05/01 00:00:16;;;;;;;22.30;18.25;;;5.30;99.90;;;;;;5056299;28;20052;-62
2022/05/01 00:02:42;;;;;;;25.08;19.10;;;5.30;99.90;;;;;;5055994;28;20522;-62
2022/05/01 00:05:07;;;;;;;22.50;17.75;;;5.20;99.90;;;;;;5055864;28;20045;-62
2022/05/01 00:07:33;;;;;;;24.77;18.35;;;5.20;99.90;;;;;;5055715;28;20098;-62
2022/05/01 00:09:59;;;;;;;20.20;17.45;;;5.20;99.90;;;;;;5054728;28;20417;-62
2022/05/01 00:12:25;;;;;;;23.58;17.45;;;5.30;99.90;;;;;;5055681;28;20045;-62
2022/05/01 00:14:51;;;;;;;22.67;17.50;;;5.20;99.90;;;;;;5055597;28;20371;-62
2022/05/01 00:17:17;;;;;;;22.02;17.00;;;5.20;99.90;;;;;;5055672;28;20076;-62
2022/05/01 00:19:42;;;;;;;21.15;17.67;;;5.20;99.90;;;;;;5055404;28;20134;-62
2022/05/01 00:22:08;;;;;;;21.10;17.02;;;5.20;99.90;;;;;;5055199;28;20052;-62
2022/05/01 00:24:33;;;;;;;25.20;18.88;;;5.20;99.90;;;;;;5055338;28;20041;-62
2022/05/01 00:27:00;;;;;;;24.67;18.33;;;5.20;99.90;;;;;;5055274;28;20110;-62
2022/05/01 00:29:26;;;;;;;27.25;19.33;;;5.10;99.90;;;;;;5055535;28;20080;-62
2022/05/01 00:31:51;;;;;;;25.55;19.83;;;5.10;99.90;;;;;;5055345;28;20146;-62
2022/05/01 00:37:01;;;;;;;22.65;19.33;;;5.20;99.90;;;;;;5055101;28;20055;-62
2022/05/01 00:39:27;;;;;;;24.00;18.58;;;5.10;99.90;;;;;;5055194;28;20041;-62
2022/05/01 00:41:53;;;;;;;25.00;19.15;;;5.10;99.90;;;;;;5055364;28;20064;-62
2022/05/01 00:44:21;;;;;;;25.23;19.02;;;5.00;99.90;;;;;;5055099;28;20041;-62
2022/05/01 00:46:50;;;;;;;25.27;20.35;;;4.90;99.90;;;;;;5054915;28;20534;-62
2022/05/01 00:49:23;;;;;;;25.98;20.40;;;4.90;99.90;;;;;;5054777;28;20103;-62
2022/05/01 00:52:00;;;;;;;27.40;19.92;;;4.80;99.90;;;;;;5055043;28;20044;-62
2022/05/01 00:54:29;;;;;;;24.48;19.88;;;4.70;99.90;;;;;;5054939;28;20045;-62
2022/05/01 00:56:57;;;;;;;25.33;21.00;;;4.70;99.90;;;;;;5054978;28;20060;-62
2022/05/01 00:59:22;;;;;;;26.50;19.55;;;4.80;99.90;;;;;;5054847;28;20048;-62
2022/05/01 01:01:50;;;;;;;23.20;18.83;;;4.80;99.90;;;;;;5054883;28;20071;-62
2022/05/01 01:04:16;;;;;;;26.50;19.13;;;4.80;99.90;;;;;;5054781;28;20037;-62
2022/05/01 01:06:43;;;;;;;27.23;20.15;;;4.80;99.90;;;;;;5054807;28;20037;-62
2022/05/01 01:09:09;;;;;;;25.35;19.85;;;4.70;99.90;;;;;;5054737;28;20426;-62
2022/05/01 01:11:36;;;;;;;25.70;18.80;;;4.70;99.90;;;;;;5054660;28;20106;-62
2022/05/01 01:14:05;;;;;;;27.45;20.05;;;4.70;99.90;;;;;;5054890;28;20041;-63
2022/05/01 01:16:35;;;;;;;24.58;19.98;;;4.80;99.90;;;;;;5054528;28;20079;-62
2022/05/01 01:19:06;;;;;;;25.73;19.40;;;4.80;99.90;;;;;;5054637;28;20056;-62
2022/05/01 01:21:31;;;;;;;25.98;19.10;;;4.80;99.90;;;;;;5059153;28;20099;-62
2022/05/01 01:23:57;;;;;;;23.75;18.75;;;4.80;99.90;;;;;;5061228;28;20084;-62
2022/05/01 01:26:24;;;;;;;20.48;17.58;;;4.80;99.90;;;;;;5061137;28;20041;-62
2022/05/01 01:28:50;;;;;;;27.33;19.52;;;4.80;99.90;;;;;;5060822;28;20036;-62
2022/05/01 01:34:06;;;;;;;24.25;19.98;;;4.70;99.90;;;;;;5060708;28;20053;-62
2022/05/01 01:36:32;;;;;;;24.23;18.83;;;4.70;99.90;;;;;;5061187;28;20144;-62
2022/05/01 01:38:59;;;;;;;26.77;19.85;;;4.70;99.90;;;;;;5061128;28;20041;-62
2022/05/01 01:41:29;;;;;;;29.63;19.10;;;4.70;99.90;;;;;;5060574;28;20512;-62
2022/05/01 01:43:56;;;;;;;24.85;19.33;;;4.80;99.90;;;;;;5061067;28;20044;-62
2022/05/01 01:46:21;;;;;;;24.48;19.02;;;4.70;99.90;;;;;;5061121;28;20417;-62
2022/05/01 01:48:47;;;;;;;23.88;19.30;;;4.70;99.90;;;;;;5061204;28;20133;-62
2022/05/01 01:51:13;;;;;;;25.88;19.00;;;4.70;99.90;;;;;;5061057;28;20094;-62
2022/05/01 01:53:39;;;;;;;24.75;19.60;;;4.60;99.90;;;;;;5061283;28;20044;-63
2022/05/01 01:56:07;;;;;;;25.80;20.40;;;4.60;99.90;;;;;;5060992;28;20162;-62
2022/05/01 01:58:33;;;;;;;26.38;20.40;;;4.70;99.90;;;;;;5061256;28;20350;-62
2022/05/01 02:00:59;;;;;;;26.58;20.85;;;4.60;99.90;;;;;;5061169;28;20040;-62
2022/05/01 02:03:26;;;;;;;23.63;20.02;;;4.60;99.90;;;;;;5061101;28;20393;-62
2022/05/01 02:05:52;;;;;;;27.00;20.95;;;4.60;99.90;;;;;;5060995;28;20124;-61
2022/05/01 02:08:18;;;;;;;26.30;20.48;;;4.60;99.90;;;;;;5060734;28;20059;-62
2022/05/01 02:10:44;;;;;;;26.70;21.33;;;4.60;99.90;;;;;;5060736;28;20048;-62
2022/05/01 02:13:10;;;;;;;23.67;20.92;;;4.60;99.90;;;;;;5061173;28;20075;-62
2022/05/01 02:15:37;;;;;;;26.75;21.38;;;4.70;99.90;;;;;;5060942;28;20053;-62
2022/05/01 02:18:03;;;;;;;28.10;21.20;;;4.60;99.90;;;;;;5060789;28;20049;-61
2022/05/01 02:23:15;;;;;;;32.08;22.95;;;4.40;99.90;;;;;;5060576;28;20052;-62
2022/05/01 02:25:41;;;;;;;31.38;24.13;;;4.40;99.90;;;;;;5060863;28;20096;-62
2022/05/01 02:28:07;;;;;;;34.55;25.60;;;4.40;99.90;;;;;;5060556;28;20435;-62
2022/05/01 02:30:33;;;;;;;36.13;25.50;;;4.40;99.90;;;;;;5060453;28;20121;-62
2022/05/01 02:32:59;;;;;;;31.67;24.95;;;4.40;99.90;;;;;;5057886;28;20055;-62
2022/05/01 02:35:24;;;;;;;34.03;25.58;;;4.40;99.90;;;;;;5040251;28;20526;-62
2022/05/01 02:37:50;;;;;;;32.20;24.80;;;4.30;99.90;;;;;;5057036;28;20083;-62
2022/05/01 02:40:15;;;;;;;31.05;24.40;;;4.30;99.90;;;;;;5057198;28;20053;-62
2022/05/01 02:42:42;;;;;;;33.55;25.95;;;4.20;99.90;;;;;;5057392;28;20056;-62
2022/05/01 02:45:08;;;;;;;29.95;23.38;;;4.20;99.90;;;;;;5057310;28;20061;-62
2022/05/01 02:47:34;;;;;;;31.85;24.17;;;4.30;99.90;;;;;;5057255;28;20048;-62
2022/05/01 02:50:00;;;;;;;31.58;24.15;;;4.30;99.90;;;;;;5057222;28;20103;-63
2022/05/01 02:52:25;;;;;;;30.67;23.70;;;4.30;99.90;;;;;;5057310;28;20096;-62
2022/05/01 02:54:51;;;;;;;28.30;22.13;;;4.30;99.90;;;;;;5057033;28;20075;-62
2022/05/01 02:57:16;;;;;;;30.15;21.83;;;4.30;99.90;;;;;;5057065;28;20036;-62
2022/05/01 02:59:42;;;;;;;28.10;21.80;;;4.30;99.90;;;;;;5056997;28;20049;-62
2022/05/01 03:02:08;;;;;;;30.23;22.90;;;4.30;99.90;;;;;;5057255;28;20103;-62
2022/05/01 03:04:34;;;;;;;27.13;22.13;;;4.20;99.90;;;;;;5057162;28;20055;-62
2022/05/01 03:07:00;;;;;;;24.27;20.52;;;4.20;99.90;;;;;;5056940;28;20056;-62
2022/05/01 03:09:25;;;;;;;28.02;21.35;;;4.20;99.90;;;;;;5056855;28;20071;-61
2022/05/01 03:11:51;;;;;;;27.60;22.35;;;4.20;99.90;;;;;;5056708;28;20056;-62
2022/05/01 03:14:16;;;;;;;26.75;21.45;;;4.20;99.90;;;;;;5056921;28;20103;-62
2022/05/01 03:16:42;;;;;;;28.45;21.05;;;4.20;99.90;;;;;;5056643;28;20053;-62
2022/05/01 03:24:36;;;;;;;27.60;20.50;;;4.20;99.90;;;;;;5056850;28;20053;-62
2022/05/01 03:27:03;;;;;;;26.42;20.27;;;4.20;99.90;;;;;;5056545;28;20045;-62
2022/05/01 03:29:28;;;;;;;29.85;22.30;;;4.20;99.90;;;;;;5056484;28;20041;-62
2022/05/01 03:31:54;;;;;;;27.05;19.65;;;4.20;99.90;;;;;;5056268;28;20037;-62
2022/05/01 03:34:20;;;;;;;29.05;20.90;;;4.20;99.90;;;;;;5056306;28;20045;-62
2022/05/01 03:36:47;;;;;;;25.42;19.08;;;4.20;99.90;;;;;;5056515;28;20036;-61
2022/05/01 03:39:14;;;;;;;23.95;19.55;;;4.20;99.90;;;;;;5056563;28;20092;-62
2022/05/01 03:41:39;;;;;;;26.85;19.73;;;4.20;99.90;;;;;;5056488;28;20466;-62
2022/05/01 03:44:07;;;;;;;26.92;20.60;;;4.20;99.90;;;;;;5055945;28;20032;-62
2022/05/01 03:46:34;;;;;;;24.98;20.70;;;4.10;99.90;;;;;;5055416;28;20111;-62
2022/05/01 03:48:59;;;;;;;24.15;19.98;;;4.10;99.90;;;;;;5056355;28;20060;-62
2022/05/01 03:51:25;;;;;;;25.27;20.08;;;4.10;99.90;;;;;;5055943;28;20045;-62
2022/05/01 03:53:51;;;;;;;29.35;21.08;;;4.10;99.90;;;;;;5056316;28;20041;-62
2022/05/01 03:56:16;;;;;;;27.80;20.52;;;4.10;99.90;;;;;;5056093;28;20439;-62
2022/05/01 03:58:42;;;;;;;27.63;21.67;;;4.10;99.90;;;;;;5055933;28;20126;-62
2022/05/01 04:01:07;;;;;;;27.50;21.38;;;4.10;99.90;;;;;;5055556;28;20048;-62
2022/05/01 04:03:33;;;;;;;29.00;21.73;;;4.10;99.90;;;;;;5055852;28;20049;-62
2022/05/01 04:05:59;;;;;;;30.00;23.15;;;4.10;99.90;;;;;;5055755;28;20044;-62
2022/05/01 04:08:25;;;;;;;29.83;23.38;;;4.00;99.90;;;;;;5055800;28;20051;-62
2022/05/01 04:10:51;;;;;;;27.70;21.67;;;4.00;99.90;;;;;;5055346;28;20371;-61
2022/05/01 04:13:17;;;;;;;29.13;22.92;;;4.00;99.90;;;;;;5055767;28;20049;-62
2022/05/01 04:15:44;;;;;;;29.58;23.00;;;4.00;99.90;;;;;;5054990;28;20490;-62
2022/05/01 04:18:10;;;;;;;30.63;23.55;;;4.10;99.90;;;;;;5052311;28;20041;-62
2022/05/01 04:20:39;;;;;;;30.58;22.77;;;4.00;99.90;;;;;;5055531;28;20121;-61
2022/05/01 04:23:06;;;;;;;28.35;22.40;;;4.00;99.90;;;;;;5055405;28;20052;-61
2022/05/01 04:25:34;;;;;;;28.35;21.42;;;4.00;99.90;;;;;;5055142;28;20041;-63
2022/05/01 04:28:07;;;;;;;27.05;21.92;;;4.00;99.90;;;;;;5054981;28;20455;-62
2022/05/01 04:30:33;;;;;;;28.98;20.95;;;4.00;99.90;;;;;;5055369;28;20072;-62
2022/05/01 04:33:06;;;;;;;28.75;21.30;;;4.10;99.90;;;;;;5055546;28;20425;-62
2022/05/01 04:35:34;;;;;;;29.30;21.70;;;4.10;99.90;;;;;;5055082;28;20045;-62
2022/05/01 04:38:01;;;;;;;26.70;21.50;;;4.10;99.90;;;;;;5055231;28;20048;-62
2022/05/01 04:40:29;;;;;;;26.75;21.52;;;4.10;99.90;;;;;;5055037;28;20049;-62
2022/05/01 04:43:01;;;;;;;29.30;21.15;;;4.10;99.90;;;;;;5054886;28;20056;-62
2022/05/01 04:45:28;;;;;;;27.65;21.40;;;4.10;99.90;;;;;;5055021;28;20114;-61
2022/05/01 04:47:54;;;;;;;27.48;21.92;;;4.10;99.90;;;;;;5054733;28;20454;-62
2022/05/01 04:50:19;;;;;;;28.73;22.23;;;4.10;99.90;;;;;;5055056;28;20098;-62
2022/05/01 04:52:45;;;;;;;29.65;21.63;;;4.10;99.90;;;;;;5054917;28;20041;-62
2022/05/01 04:55:11;;;;;;;28.92;20.95;;;4.10;99.90;;;;;;5054161;28;20450;-62
2022/05/01 04:57:39;;;;;;;29.33;22.00;;;4.10;99.90;;;;;;5055028;28;20094;-62
2022/05/01 05:00:07;;;;;;;26.80;22.15;;;4.20;99.90;;;;;;5054443;28;20045;-62
2022/05/01 05:02:34;;;;;;;30.20;23.20;;;4.20;99.90;;;;;;5034940;28;20057;-61
2022/05/01 05:05:00;;;;;;;30.38;22.50;;;4.20;99.90;;;;;;5034796;28;20383;-62
2022/05/01 05:07:25;;;;;;;29.30;22.77;;;4.30;99.90;;;;;;5034726;28;20049;-61
2022/05/01 05:09:54;;;;;;;27.70;21.88;;;4.30;99.90;;;;;;5045171;28;20047;-62
2022/05/01 05:12:19;;;;;;;27.65;21.25;;;4.30;99.90;;;;;;5054674;28;20041;-62
2022/05/01 05:14:47;;;;;;;26.23;20.95;;;4.30;99.90;;;;;;5054621;28;20416;-62
2022/05/01 05:17:13;;;;;;;26.85;20.65;;;4.40;99.90;;;;;;5054598;28;20474;-62
2022/05/01 05:19:39;;;;;;;31.35;21.45;;;4.40;99.90;;;;;;5054622;28;20037;-62
2022/05/01 05:22:04;;;;;;;28.05;20.88;;;4.40;99.90;;;;;;5054528;28;20099;-61
2022/05/01 05:24:30;;;;;;;27.80;20.20;;;4.50;99.90;;;;;;5054419;28;20548;-62
2022/05/01 05:26:57;;;;;;;28.70;20.73;;;4.50;99.90;;;;;;5054026;28;20048;-62
2022/05/01 05:29:23;;;;;;;25.70;19.27;;;4.60;99.90;;;;;;5054582;28;20056;-61
2022/05/01 05:31:49;;;;;;;25.88;20.02;;;4.60;99.90;;;;;;5054696;28;20055;-61
2022/05/01 05:34:14;;;;;;;25.73;20.23;;;4.70;99.90;;;;;;5054770;28;20036;-62
2022/05/01 05:36:40;;;;;;;25.05;18.65;;;4.70;99.90;;;;;;5054699;28;20055;-62
2022/05/01 05:39:05;;;;;;;25.55;18.95;;;4.70;99.90;;;;;;5054290;28;20052;-62
2022/05/01 05:41:31;;;;;;;25.40;19.48;;;4.80;99.90;;;;;;5054199;28;20098;-62
2022/05/01 05:43:56;;;;;;;27.33;20.83;;;4.90;99.90;;;;;;5054358;28;20041;-61
2022/05/01 05:46:22;;;;;;;30.75;20.33;;;5.00;99.90;;;;;;5054423;28;20056;-61
2022/05/01 05:48:47;;;;;;;28.73;22.13;;;5.00;99.90;;;;;;5054172;28;20048;-62
2022/05/01 05:51:13;;;;;;;27.60;21.95;;;5.20;99.90;;;;;;5054564;28;20049;-62
2022/05/01 05:53:38;;;;;;;27.45;21.70;;;5.30;99.90;;;;;;5054342;28;20052;-62
2022/05/01 05:56:05;;;;;;;25.20;21.88;;;5.40;99.90;;;;;;5054096;28;20049;-61
2022/05/01 05:58:31;;;;;;;25.95;21.35;;;5.50;99.90;;;;;;5054165;28;20048;-62
2022/05/01 06:00:57;;;;;;;29.50;21.50;;;5.60;99.90;;;;;;5054337;28;20053;-62
2022/05/01 06:03:22;;;;;;;26.05;20.67;;;5.70;99.90;;;;;;5054534;28;20045;-61
2022/05/01 06:05:48;;;;;;;26.50;21.90;;;5.80;99.90;;;;;;5054533;28;20052;-61
2022/05/01 06:08:15;;;;;;;26.30;20.70;;;5.90;99.90;;;;;;5055649;28;20056;-62
2022/05/01 06:10:41;;;;;;;26.67;19.88;;;6.00;99.90;;;;;;5057947;28;20045;-62
2022/05/01 06:13:06;;;;;;;28.88;20.73;;;6.10;99.90;;;;;;5057921;28;20375;-62
2022/05/01 06:15:32;;;;;;;26.38;21.17;;;6.20;99.90;;;;;;5058058;28;20056;-62
2022/05/01 06:17:57;;;;;;;26.55;19.95;;;6.30;99.90;;;;;;5057938;28;20041;-62
2022/05/01 06:20:23;;;;;;;25.33;20.20;;;6.50;99.90;;;;;;5058028;28;20355;-63
2022/05/01 06:22:50;;;;;;;22.88;19.90;;;6.60;99.90;;;;;;5057718;28;20044;-63
2022/05/01 06:25:16;;;;;;;26.98;21.77;;;6.70;99.90;;;;;;5057733;28;20433;-62
2022/05/01 06:27:42;;;;;;;28.08;22.27;;;6.80;99.90;;;;;;5050160;28;20191;-64
2022/05/01 06:30:10;;;;;;;27.02;23.23;;;6.90;99.90;;;;;;5064293;28;20077;-68
2022/05/01 06:32:36;;;;;;;34.42;26.92;;;7.00;99.90;;;;;;5063205;28;20044;-66
2022/05/01 06:35:03;;;;;;;32.47;26.50;;;7.20;99.90;;;;;;5063140;28;20045;-64
2022/05/01 06:37:29;;;;;;;42.17;31.08;;;7.30;99.90;;;;;;5063368;28;20044;-64
2022/05/01 06:39:55;;;;;;;37.85;30.42;;;7.30;99.90;;;;;;5064268;28;20048;-64
2022/05/01 06:42:21;;;;;;;35.65;28.10;;;7.50;99.90;;;;;;5064063;28;20040;-65
2022/05/01 06:44:46;;;;;;;24.92;20.58;;;7.60;99.90;;;;;;5062041;28;20091;-64
2022/05/01 06:47:13;;;;;;;25.10;20.73;;;7.60;99.90;;;;;;5056677;28;20084;-64
2022/05/01 06:49:38;;;;;;;28.65;20.98;;;7.80;99.90;;;;;;5057159;28;20041;-63
2022/05/01 06:52:04;;;;;;;21.67;18.30;;;7.80;99.90;;;;;;5058183;28;20453;-64
2022/05/01 06:54:30;;;;;;;23.30;18.50;;;8.00;99.90;;;;;;5060720;28;20037;-65
2022/05/01 06:56:55;;;;;;;20.73;16.70;;;8.00;99.90;;;;;;5063584;28;20446;-66
2022/05/01 06:59:21;;;;;;;21.30;14.93;;;8.10;99.90;;;;;;5063401;28;20048;-66
2022/05/01 07:01:47;;;;;;;18.60;14.52;;;8.20;99.90;;;;;;5060478;28;20049;-66
2022/05/01 07:04:13;;;;;;;20.40;14.63;;;8.30;99.90;;;;;;5063624;28;20055;-65
2022/05/01 07:06:40;;;;;;;20.55;15.13;;;8.40;99.90;;;;;;5063787;28;20029;-67
2022/05/01 07:09:06;;;;;;;17.35;13.10;;;8.40;99.90;;;;;;5062112;28;20127;-65
2022/05/01 07:11:32;;;;;;;18.88;15.15;;;8.50;99.90;;;;;;5055349;28;20115;-64
2022/05/01 07:13:58;;;;;;;18.95;14.05;;;8.60;99.90;;;;;;5063978;28;20045;-63
2022/05/01 07:16:23;;;;;;;17.48;14.30;;;8.70;99.90;;;;;;5062347;28;20454;-67
2022/05/01 07:18:49;;;;;;;17.55;13.48;;;8.70;99.90;;;;;;5040345;28;20048;-66
2022/05/01 07:21:15;;;;;;;18.60;12.77;;;8.80;99.90;;;;;;5063207;28;20110;-64
2022/05/01 07:23:40;;;;;;;19.17;13.32;;;8.90;99.90;;;;;;5044927;28;20120;-66
2022/05/01 07:26:06;;;;;;;15.98;11.88;;;9.00;99.90;;;;;;5062875;28;20069;-66
2022/05/01 07:28:32;;;;;;;15.30;12.25;;;9.10;99.90;;;;;;5063037;28;20041;-65
2022/05/01 07:30:59;;;;;;;15.23;10.80;;;9.20;99.90;;;;;;5062742;28;20419;-66
2022/05/01 07:33:25;;;;;;;12.70;9.65;;;9.40;99.90;;;;;;5062771;28;20036;-65
2022/05/01 07:35:51;;;;;;;11.45;8.88;;;9.40;99.90;;;;;;5062635;28;20044;-64
2022/05/01 07:38:17;;;;;;;12.25;9.40;;;9.40;99.90;;;;;;5063084;28;20040;-66
2022/05/01 07:40:43;;;;;;;14.25;10.23;;;9.40;99.90;;;;;;5057243;28;20049;-65
2022/05/01 07:43:09;;;;;;;13.93;10.27;;;9.40;99.90;;;;;;5059336;28;20139;-66
2022/05/01 07:45:35;;;;;;;9.50;8.38;;;9.40;99.90;;;;;;5061947;28;20442;-65
2022/05/01 07:48:00;;;;;;;13.02;9.40;;;9.50;99.90;;;;;;5062226;28;20109;-65
2022/05/01 07:50:27;;;;;;;11.13;9.88;;;9.60;99.90;;;;;;5062908;28;20044;-65
2022/05/01 07:52:53;;;;;;;11.07;8.13;;;9.70;99.90;;;;;;5062822;28;20049;-66
2022/05/01 07:55:19;;;;;;;10.07;7.88;;;9.70;99.90;;;;;;5062869;28;20552;-67
2022/05/01 07:57:45;;;;;;;11.02;9.00;;;9.70;99.90;;;;;;5062378;28;20056;-67
2022/05/01 08:00:13;;;;;;;11.27;8.82;;;9.90;99.90;;;;;;5058972;28;20040;-67
2022/05/01 08:05:24;;;;;;;10.10;7.55;;;9.80;99.90;;;;;;5055528;28;20049;-66
2022/05/01 08:07:51;;;;;;;9.88;8.07;;;9.80;99.90;;;;;;5055640;28;20049;-66
2022/05/01 08:10:17;;;;;;;8.70;7.47;;;9.80;99.90;;;;;;5055716;28;20040;-66
2022/05/01 08:12:44;;;;;;;11.43;8.10;;;9.80;99.90;;;;;;5055347;28;20066;-69
2022/05/01 08:15:09;;;;;;;12.48;7.90;;;9.70;99.90;;;;;;5055421;28;20037;-65
2022/05/01 08:17:35;;;;;;;8.60;7.53;;;9.70;99.90;;;;;;5055486;28;20056;-65
2022/05/01 08:22:46;;;;;;;10.27;6.53;;;9.70;99.90;;;;;;5055450;28;20045;-65
2022/05/01 08:25:12;;;;;;;9.45;6.88;;;9.80;99.90;;;;;;5055010;28;20057;-65
2022/05/01 08:27:39;;;;;;;10.88;7.35;;;9.90;99.90;;;;;;5055336;28;20044;-65
2022/05/01 08:30:05;;;;;;;10.95;7.28;;;10.00;99.90;;;;;;5054537;28;20049;-65
2022/05/01 08:32:31;;;;;;;7.15;5.30;;;10.10;99.90;;;;;;5055201;28;20120;-66
2022/05/01 08:34:57;;;;;;;9.13;6.22;;;10.10;99.90;;;;;;5054676;28;20469;-65
2022/05/01 08:37:23;;;;;;;8.30;6.88;;;10.10;99.90;;;;;;5055106;28;20136;-66
2022/05/01 08:39:48;;;;;;;11.60;7.68;;;10.20;99.90;;;;;;5055192;28;20037;-65
2022/05/01 08:42:14;;;;;;;13.82;8.40;;;10.30;99.90;;;;;;5055224;28;20374;-65
2022/05/01 08:44:39;;;;;;;8.45;7.28;;;10.30;99.90;;;;;;5054902;28;20041;-66
2022/05/01 08:47:22;;;;;;;9.32;7.20;;;10.40;99.90;;;;;;5054600;28;20049;-65
2022/05/01 08:49:52;;;;;;;9.23;6.65;;;10.40;99.90;;;;;;5038232;28;20056;-65
2022/05/01 08:52:21;;;;;;;12.88;7.40;;;10.40;99.90;;;;;;5055005;28;20083;-66
2022/05/01 08:54:47;;;;;;;10.70;7.32;;;10.30;99.90;;;;;;5037451;28;20084;-65
2022/05/01 08:57:14;;;;;;;9.65;6.70;;;10.40;99.90;;;;;;5055218;28;20063;-65
2022/05/01 08:59:41;;;;;;;7.68;6.13;;;10.60;99.90;;;;;;5054861;28;20045;-65
2022/05/01 09:02:10;;;;;;;6.43;4.93;;;10.70;99.90;;;;;;5054823;28;20064;-65
2022/05/01 09:04:36;;;;;;;6.30;5.38;;;10.70;99.90;;;;;;5055223;28;20128;-65
2022/05/01 09:07:02;;;;;;;9.15;6.60;;;10.70;99.90;;;;;;5054667;28;20045;-66
2022/05/01 09:09:28;;;;;;;9.10;6.57;;;10.80;99.90;;;;;;5055258;28;20056;-65
2022/05/01 09:14:40;;;;;;;12.30;5.90;;;11.10;99.90;;;;;;5054772;28;20044;-65
2022/05/01 09:17:18;;;;;;;9.57;6.18;;;11.30;99.90;;;;;;5054739;28;20084;-65
2022/05/01 09:19:48;;;;;;;8.10;6.63;;;11.40;99.90;;;;;;5054651;28;20128;-65
2022/05/01 09:22:14;;;;;;;7.85;6.03;;;11.50;99.90;;;;;;5054742;28;20068;-65
2022/05/01 09:24:40;;;;;;;7.90;5.97;;;11.50;99.90;;;;;;5054585;28;20090;-65
2022/05/01 09:27:21;;;;;;;7.35;5.68;;;11.60;99.90;;;;;;5054786;28;20037;-66
2022/05/01 09:29:47;;;;;;;12.85;7.63;;;11.70;99.90;;;;;;5054335;28;20037;-66
2022/05/01 09:32:12;;;;;;;9.35;5.75;;;11.80;99.90;;;;;;5054558;28;20049;-65
2022/05/01 09:34:43;;;;;;;10.82;5.88;;;11.80;99.90;;;;;;5054708;28;20091;-65
2022/05/01 09:37:18;;;;;;;7.28;5.50;;;11.90;99.90;;;;;;5054360;28;20052;-65
2022/05/01 09:39:48;;;;;;;6.25;5.45;;;12.00;99.90;;;;;;5054603;28;20049;-65
2022/05/01 09:42:16;;;;;;;8.50;6.15;;;12.10;99.90;;;;;;5056139;28;20053;-66
2022/05/01 09:44:42;;;;;;;7.65;6.35;;;12.10;99.90;;;;;;5058419;28;20367;-66
2022/05/01 09:47:08;;;;;;;8.40;5.70;;;12.20;99.90;;;;;;5058496;28;20060;-65
2022/05/01 09:49:48;;;;;;;8.23;5.75;;;12.30;99.90;;;;;;5058266;28;20045;-65
2022/05/01 09:52:15;;;;;;;7.18;6.18;;;12.20;99.90;;;;;;5058410;28;20047;-66
2022/05/01 09:55:00;;;;;;;10.02;6.43;;;12.00;99.90;;;;;;5058026;28;20434;-66
2022/05/01 09:57:26;;;;;;;8.98;6.15;;;11.90;99.90;;;;;;5058250;28;20052;-66
2022/05/01 09:59:51;;;;;;;9.70;6.35;;;11.90;99.90;;;;;;5058043;28;20037;-66
2022/05/01 10:02:28;;;;;;;10.18;6.20;;;11.90;99.90;;;;;;5057870;28;20044;-66
2022/05/01 10:04:56;;;;;;;8.05;5.85;;;12.00;99.90;;;;;;5057645;28;20374;-66
2022/05/01 10:07:22;;;;;;;8.65;6.38;;;12.00;99.90;;;;;;5057273;28;20450;-67
2022/05/01 10:09:50;;;;;;;9.57;6.05;;;11.80;99.90;;;;;;5040296;28;20442;-68
2022/05/01 10:12:18;;;;;;;7.35;6.30;;;11.80;99.90;;;;;;5058047;28;20142;-66
2022/05/01 10:14:44;;;;;;;7.35;5.88;;;11.90;99.90;;;;;;5057960;28;20044;-68
2022/05/01 10:17:09;;;;;;;7.90;6.38;;;12.00;99.90;;;;;;5057584;28;20367;-67
2022/05/01 10:19:35;;;;;;;10.23;6.30;;;11.90;99.90;;;;;;5058038;28;20410;-65
2022/05/01 10:22:03;;;;;;;9.63;6.38;;;11.90;99.90;;;;;;5057250;28;20077;-69
2022/05/01 10:24:29;;;;;;;7.50;6.50;;;11.90;99.90;;;;;;5057714;28;20060;-68
2022/05/01 10:26:57;;;;;;;8.70;5.93;;;12.10;99.90;;;;;;5057683;28;20098;-69
2022/05/01 10:29:36;;;;;;;11.00;6.78;;;12.20;99.90;;;;;;5057791;28;20063;-66
2022/05/01 10:32:26;;;;;;;8.43;5.93;;;12.40;99.90;;;;;;5057273;28;20374;-64
2022/05/01 10:35:10;;;;;;;8.45;5.88;;;12.60;99.90;;;;;;5057336;28;20095;-64
2022/05/01 10:38:05;;;;;;;7.72;6.20;;;12.70;99.90;;;;;;5057787;28;20037;-66
2022/05/01 10:41:04;;;;;;;7.75;5.80;;;12.70;99.90;;;;;;5057382;28;20061;-70
2022/05/01 10:43:33;;;;;;;9.27;6.45;;;12.70;99.90;;;;;;5054462;28;20060;-69
2022/05/01 10:45:59;;;;;;;9.02;6.10;;;12.80;99.90;;;;;;5039625;28;20131;-68
2022/05/01 10:48:41;;;;;;;8.48;6.70;;;12.70;99.90;;;;;;5057066;28;20439;-70
2022/05/01 10:51:29;;;;;;;7.78;6.53;;;12.80;99.90;;;;;;5036956;28;20049;-68
2022/05/01 10:54:10;;;;;;;8.25;6.18;;;12.80;99.90;;;;;;5055123;28;20106;-67
2022/05/01 10:56:42;;;;;;;8.57;5.88;;;12.80;99.90;;;;;;5056594;28;20120;-66
2022/05/01 10:59:29;;;;;;;7.93;5.95;;;12.70;99.90;;;;;;5056292;28;20470;-66
2022/05/01 11:01:56;;;;;;;8.90;5.93;;;12.70;99.90;;;;;;5019326;28;20041;-70
2022/05/01 11:04:22;;;;;;;9.05;6.40;;;12.80;99.90;;;;;;5036164;28;20414;-68
2022/05/01 11:06:54;;;;;;;8.63;6.40;;;13.00;99.90;;;;;;5046532;28;20048;-67
2022/05/01 11:09:22;;;;;;;7.53;5.93;;;13.10;99.90;;;;;;5056748;28;20041;-66
2022/05/01 11:11:57;;;;;;;8.23;5.93;;;13.20;99.90;;;;;;5053207;28;20055;-66
2022/05/01 11:14:40;;;;;;;8.13;6.55;;;13.40;99.90;;;;;;5039076;28;20064;-66
2022/05/01 11:17:08;;;;;;;9.10;5.60;;;13.40;99.90;;;;;;5056812;28;20477;-66
2022/05/01 11:19:51;;;;;;;6.50;5.90;;;13.40;99.90;;;;;;5056770;28;20106;-65
2022/05/01 11:22:24;;;;;;;7.97;5.95;;;13.60;99.90;;;;;;5039172;28;20049;-67
2022/05/01 11:24:50;;;;;;;8.65;6.53;;;13.90;99.90;;;;;;5056516;28;20062;-66
2022/05/01 11:27:18;;;;;;;7.97;6.30;;;13.80;99.90;;;;;;5056733;28;20435;-66
2022/05/01 11:30:22;;;;;;;7.28;5.80;;;13.80;99.90;;;;;;5056573;28;20059;-66
2022/05/01 11:32:58;;;;;;;7.60;5.50;;;13.80;99.90;;;;;;5056585;28;20077;-67
2022/05/01 11:35:54;;;;;;;7.65;5.68;;;13.80;99.90;;;;;;5056495;28;20064;-68
2022/05/01 11:38:30;;;;;;;7.45;6.10;;;13.70;99.90;;;;;;5056004;28;20045;-67
2022/05/01 11:40:57;;;;;;;9.07;6.50;;;13.40;99.90;;;;;;5056207;28;20041;-68
2022/05/01 11:43:23;;;;;;;7.93;6.10;;;13.50;99.90;;;;;;5056381;28;20103;-67
2022/05/01 11:45:49;;;;;;;6.97;5.68;;;13.60;99.90;;;;;;5056043;28;20053;-69
2022/05/01 11:48:18;;;;;;;9.10;5.65;;;13.80;99.90;;;;;;5056194;28;20088;-66
2022/05/01 11:50:51;;;;;;;7.13;5.47;;;13.90;99.90;;;;;;5055857;28;20084;-67
2022/05/01 11:53:23;;;;;;;8.98;5.80;;;13.90;99.90;;;;;;5051876;28;20494;-67
2022/05/01 12:04:27;;;;;;;7.70;5.30;;;14.30;99.90;;;;;;5055478;28;20092;-66
2022/05/01 12:07:11;;;;;;;8.35;5.40;;;14.20;99.90;;;;;;5055514;28;20107;-65
2022/05/01 12:09:38;;;;;;;;;;;14.20;99.90;;;;;;5052234;28;20344;-65
2022/05/01 12:12:09;;;;;;;8.00;5.45;;;14.30;99.90;;;;;;5054819;28;19924;-65
2022/05/01 12:14:36;;;;;;;8.32;5.03;;;14.40;99.90;;;;;;5054011;28;20049;-66
2022/05/01 12:17:06;;;;;;;6.55;5.38;;;14.70;99.90;;;;;;5036723;28;20037;-66
2022/05/01 12:19:39;;;;;;;6.18;5.22;;;14.80;99.90;;;;;;5054975;28;20048;-65
2022/05/01 12:22:07;;;;;;;6.57;4.95;;;14.80;99.90;;;;;;5054464;28;20060;-65
2022/05/01 12:24:33;;;;;;;6.28;5.05;;;14.80;99.90;;;;;;5038097;28;20036;-66
2022/05/01 12:26:59;;;;;;;6.50;5.35;;;14.80;99.90;;;;;;5055003;28;20477;-65
2022/05/01 12:29:26;;;;;;;7.53;5.10;;;14.80;99.90;;;;;;5055483;28;20363;-66
2022/05/01 12:32:02;;;;;;;5.82;4.57;;;14.90;99.90;;;;;;5054684;28;20250;-66
2022/05/01 12:34:30;;;;;;;7.18;4.70;;;14.90;99.90;;;;;;5052085;28;20052;-65
2022/05/01 12:37:01;;;;;;;5.57;3.80;;;14.70;99.90;;;;;;5054533;28;20151;-66
2022/05/01 12:39:27;;;;;;;5.90;4.18;;;15.00;99.90;;;;;;5052826;28;20041;-65
2022/05/01 12:45:11;;;;;;;5.75;4.20;;;16.10;99.90;;;;;;5054245;28;20064;-66
2022/05/01 12:47:45;;;;;;;7.13;4.55;;;16.30;98.30;;;;;;5054475;28;20052;-65
2022/05/01 12:50:21;;;;;;;7.22;4.80;;;16.00;99.90;;;;;;5035081;28;20434;-65
2022/05/01 12:52:53;;;;;;;7.68;4.35;;;15.50;99.00;;;;;;5048427;28;20421;-69
2022/05/01 12:55:28;;;;;;;5.78;4.00;;;15.30;98.20;;;;;;5053877;28;20439;-68
2022/05/01 12:57:59;;;;;;;5.40;3.92;;;15.00;98.50;;;;;;5055084;28;20080;-68
2022/05/01 13:00:34;;;;;;;6.78;4.70;;;15.50;98.00;;;;;;5053830;28;20037;-68
2022/05/01 13:03:29;;;;;;;6.43;4.10;;;15.90;97.90;;;;;;5054413;28;20041;-70
2022/05/01 13:06:11;;;;;;;5.60;4.53;;;16.70;96.70;;;;;;5053810;28;20060;-69
2022/05/01 13:08:40;;;;;;;5.03;4.18;;;17.50;97.90;;;;;;5054799;28;20048;-70
2022/05/01 13:11:14;;;;;;;5.20;4.10;;;17.00;97.10;;;;;;5051912;28;20106;-70
2022/05/01 13:14:05;;;;;;;5.05;4.47;;;16.90;96.00;;;;;;5029425;28;20055;-69
2022/05/01 13:16:31;;;;;;;5.20;4.70;;;17.70;98.40;;;;;;5053967;28;20050;-69
2022/05/01 13:18:59;;;;;;;6.65;4.40;;;18.30;96.30;;;;;;5054592;28;20363;-70